createdAt,value
2023-04-02T00:00:06.137Z,996.13
2023-04-02T00:01:06.113Z,996.17
2023-04-02T00:02:06.140Z,996.15
2023-04-02T00:03:06.196Z,996.17
2023-04-02T00:04:06.140Z,996.18
2023-04-02T00:05:06.079Z,996.20
2023-04-02T00:06:06.063Z,996.21
2023-04-02T00:07:06.062Z,996.19
2023-04-02T00:08:06.825Z,996.20
2023-04-02T00:09:06.038Z,996.25
2023-04-02T00:10:06.023Z,996.27
2023-04-02T00:11:06.013Z,996.22
2023-04-02T00:12:06.014Z,996.26
2023-04-02T00:13:05.997Z,996.33
2023-04-02T00:14:05.993Z,996.30
2023-04-02T00:15:05.977Z,996.34
2023-04-02T00:16:05.979Z,996.34
2023-04-02T00:17:05.975Z,996.38
2023-04-02T00:18:05.991Z,996.34
2023-04-02T00:19:05.941Z,996.37
2023-04-02T00:20:05.934Z,996.38
2023-04-02T00:21:05.919Z,996.40
2023-04-02T00:22:05.912Z,996.40
2023-04-02T00:23:05.900Z,996.40
2023-04-02T00:24:05.915Z,996.43
2023-04-02T00:25:05.879Z,996.43
2023-04-02T00:26:05.870Z,996.43
2023-04-02T00:27:05.863Z,996.43
2023-04-02T00:28:06.829Z,996.45
2023-04-02T00:29:05.844Z,996.46
2023-04-02T00:30:05.829Z,996.49
2023-04-02T00:31:05.822Z,996.50
2023-04-02T00:32:05.884Z,996.51
2023-04-02T00:33:06.350Z,996.51
2023-04-02T00:34:05.817Z,996.51
2023-04-02T00:35:05.781Z,996.50
2023-04-02T00:36:05.833Z,996.52
2023-04-02T00:37:05.793Z,996.52
2023-04-02T00:38:05.796Z,996.51
2023-04-02T00:39:05.781Z,996.53
2023-04-02T00:40:05.734Z,996.49
2023-04-02T00:41:05.733Z,996.49
2023-04-02T00:42:05.810Z,996.51
2023-04-02T00:43:05.710Z,996.52
2023-04-02T00:44:05.703Z,996.52
2023-04-02T00:45:05.694Z,996.47
2023-04-02T00:46:05.696Z,996.52
2023-04-02T00:47:05.735Z,996.51
2023-04-02T00:48:05.747Z,996.48
2023-04-02T00:49:05.677Z,996.51
2023-04-02T00:50:05.686Z,996.52
2023-04-02T00:51:05.663Z,996.50
2023-04-02T00:52:05.673Z,996.49
2023-04-02T00:53:05.645Z,996.51
2023-04-02T00:54:05.662Z,996.52
2023-04-02T00:55:05.597Z,996.50
2023-04-02T00:56:05.579Z,996.47
2023-04-02T00:57:05.626Z,996.51
2023-04-02T00:58:05.562Z,996.52
2023-04-02T00:59:05.583Z,996.50
2023-04-02T01:00:05.541Z,996.55
2023-04-02T01:01:05.552Z,996.56
2023-04-02T01:02:05.524Z,996.58
2023-04-02T01:03:06.432Z,996.56
2023-04-02T01:04:05.569Z,996.57
2023-04-02T01:05:05.484Z,996.58
2023-04-02T01:06:05.516Z,996.57
2023-04-02T01:07:05.473Z,996.61
2023-04-02T01:08:05.461Z,996.60
2023-04-02T01:09:05.453Z,996.60
2023-04-02T01:10:05.545Z,996.60
2023-04-02T01:11:05.430Z,996.63
2023-04-02T01:12:05.455Z,996.71
2023-04-02T01:13:05.445Z,996.63
2023-04-02T01:14:05.443Z,996.64
2023-04-02T01:15:05.392Z,996.67
2023-04-02T01:16:05.402Z,996.66
2023-04-02T01:17:05.375Z,996.64
2023-04-02T01:18:05.420Z,996.70
2023-04-02T01:19:05.363Z,996.67
2023-04-02T01:20:05.361Z,996.66
2023-04-02T01:21:05.330Z,996.69
2023-04-02T01:22:05.322Z,996.68
2023-04-02T01:23:05.875Z,996.70
2023-04-02T01:24:05.311Z,996.69
2023-04-02T01:25:05.294Z,996.74
2023-04-02T01:26:05.283Z,996.72
2023-04-02T01:27:05.285Z,996.75
2023-04-02T01:28:05.262Z,996.76
2023-04-02T01:29:05.250Z,996.75
2023-04-02T01:30:05.245Z,996.78
2023-04-02T01:31:05.275Z,996.76
2023-04-02T01:32:05.234Z,996.76
2023-04-02T01:33:05.257Z,996.79
2023-04-02T01:34:05.204Z,996.82
2023-04-02T01:35:05.196Z,996.80
2023-04-02T01:36:05.210Z,996.83
2023-04-02T01:37:05.175Z,996.84
2023-04-02T01:38:05.159Z,996.82
2023-04-02T01:39:05.167Z,996.85
2023-04-02T01:40:05.152Z,996.85
2023-04-02T01:41:05.132Z,996.83
2023-04-02T01:42:05.212Z,996.82
2023-04-02T01:43:05.113Z,996.88
2023-04-02T01:44:05.114Z,996.88
2023-04-02T01:45:05.127Z,996.92
2023-04-02T01:46:05.105Z,996.92
2023-04-02T01:47:05.075Z,996.95
2023-04-02T01:48:05.132Z,996.99
2023-04-02T01:49:05.062Z,996.99
2023-04-02T01:50:05.049Z,997.00
2023-04-02T01:51:05.038Z,997.05
2023-04-02T01:52:05.031Z,997.03
2023-04-02T01:53:05.026Z,997.06
2023-04-02T01:54:05.007Z,997.07
2023-04-02T01:55:04.995Z,997.06
2023-04-02T01:56:04.986Z,997.07
2023-04-02T01:57:05.012Z,997.10
2023-04-02T01:58:04.990Z,997.09
2023-04-02T01:59:04.957Z,997.12
2023-04-02T02:00:04.952Z,997.09
2023-04-02T02:01:04.969Z,997.11
2023-04-02T02:02:04.962Z,997.12
2023-04-02T02:03:04.963Z,997.11
2023-04-02T02:04:04.906Z,997.11
2023-04-02T02:05:04.893Z,997.10
2023-04-02T02:06:04.890Z,997.11
2023-04-02T02:07:04.877Z,997.11
2023-04-02T02:08:04.862Z,997.15
2023-04-02T02:09:04.878Z,997.14
2023-04-02T02:10:04.868Z,997.14
2023-04-02T02:11:04.856Z,997.15
2023-04-02T02:12:04.836Z,997.19
2023-04-02T02:13:07.070Z,997.19
2023-04-02T02:14:04.868Z,997.18
2023-04-02T02:15:04.819Z,997.17
2023-04-02T02:16:04.814Z,997.18
2023-04-02T02:17:04.784Z,997.18
2023-04-02T02:18:04.769Z,997.19
2023-04-02T02:19:04.773Z,997.21
2023-04-02T02:20:04.750Z,997.20
2023-04-02T02:21:04.739Z,997.24
2023-04-02T02:22:04.737Z,997.20
2023-04-02T02:23:04.720Z,997.20
2023-04-02T02:24:04.715Z,997.21
2023-04-02T02:25:04.697Z,997.25
2023-04-02T02:26:04.693Z,997.24
2023-04-02T02:27:04.681Z,997.30
2023-04-02T02:28:04.672Z,997.28
2023-04-02T02:29:04.670Z,997.30
2023-04-02T02:30:04.713Z,997.33
2023-04-02T02:31:04.645Z,997.32
2023-04-02T02:32:04.690Z,997.38
2023-04-02T02:33:04.723Z,997.36
2023-04-02T02:34:04.624Z,997.40
2023-04-02T02:35:04.605Z,997.43
2023-04-02T02:36:04.636Z,997.43
2023-04-02T02:37:04.582Z,997.44
2023-04-02T02:38:04.571Z,997.44
2023-04-02T02:39:04.562Z,997.45
2023-04-02T02:40:04.557Z,997.46
2023-04-02T02:41:04.554Z,997.50
2023-04-02T02:42:04.541Z,997.51
2023-04-02T02:43:04.527Z,997.52
2023-04-02T02:44:04.527Z,997.49
2023-04-02T02:45:04.500Z,997.54
2023-04-02T02:46:04.532Z,997.54
2023-04-02T02:47:04.483Z,997.54
2023-04-02T02:48:04.526Z,997.57
2023-04-02T02:49:04.495Z,997.58
2023-04-02T02:50:04.457Z,997.61
2023-04-02T02:51:04.440Z,997.63
2023-04-02T02:52:04.439Z,997.61
2023-04-02T02:53:05.382Z,997.59
2023-04-02T02:54:04.421Z,997.63
2023-04-02T02:55:04.408Z,997.64
2023-04-02T02:56:04.392Z,997.63
2023-04-02T02:57:04.437Z,997.62
2023-04-02T02:58:04.378Z,997.65
2023-04-02T02:59:04.361Z,997.65
2023-04-02T03:00:04.357Z,997.66
2023-04-02T03:01:04.399Z,997.68
2023-04-02T03:02:04.333Z,997.68
2023-04-02T03:03:04.427Z,997.68
2023-04-02T03:04:04.399Z,997.67
2023-04-02T03:05:04.300Z,997.71
2023-04-02T03:06:04.295Z,997.68
2023-04-02T03:07:04.282Z,997.73
2023-04-02T03:08:04.285Z,997.72
2023-04-02T03:09:04.263Z,997.72
2023-04-02T03:10:04.255Z,997.73
2023-04-02T03:11:04.248Z,997.71
2023-04-02T03:12:04.232Z,997.73
2023-04-02T03:13:04.877Z,997.74
2023-04-02T03:14:04.213Z,997.76
2023-04-02T03:15:04.211Z,997.76
2023-04-02T03:16:04.207Z,997.81
2023-04-02T03:17:04.184Z,997.83
2023-04-02T03:18:04.953Z,997.83
2023-04-02T03:19:04.163Z,997.87
2023-04-02T03:20:04.156Z,997.84
2023-04-02T03:21:04.144Z,997.91
2023-04-02T03:22:04.137Z,997.86
2023-04-02T03:23:04.893Z,997.87
2023-04-02T03:24:04.119Z,997.91
2023-04-02T03:25:04.103Z,997.92
2023-04-02T03:26:04.093Z,997.96
2023-04-02T03:27:04.084Z,998.02
2023-04-02T03:28:04.077Z,998.02
2023-04-02T03:29:04.063Z,998.00
2023-04-02T03:30:04.095Z,998.04
2023-04-02T03:31:04.128Z,998.03
2023-04-02T03:32:04.036Z,998.05
2023-04-02T03:33:04.073Z,998.07
2023-04-02T03:34:04.023Z,998.07
2023-04-02T03:35:04.002Z,998.05
2023-04-02T03:36:04.006Z,998.12
2023-04-02T03:37:03.988Z,998.12
2023-04-02T03:38:03.980Z,998.14
2023-04-02T03:39:03.969Z,998.16
2023-04-02T03:40:03.958Z,998.19
2023-04-02T03:41:03.950Z,998.18
2023-04-02T03:42:03.939Z,998.19
2023-04-02T03:43:03.931Z,998.20
2023-04-02T03:44:03.916Z,998.23
2023-04-02T03:45:03.901Z,998.24
2023-04-02T03:46:03.932Z,998.27
2023-04-02T03:47:03.885Z,998.29
2023-04-02T03:48:03.932Z,998.28
2023-04-02T03:49:03.865Z,998.29
2023-04-02T03:50:03.853Z,998.26
2023-04-02T03:51:03.842Z,998.29
2023-04-02T03:52:03.840Z,998.28
2023-04-02T03:53:03.828Z,998.32
2023-04-02T03:54:03.832Z,998.31
2023-04-02T03:55:03.803Z,998.34
2023-04-02T03:56:03.813Z,998.36
2023-04-02T03:57:03.902Z,998.34
2023-04-02T03:58:03.777Z,998.35
2023-04-02T03:59:03.767Z,998.35
2023-04-02T04:00:03.785Z,998.38
2023-04-02T04:01:03.747Z,998.40
2023-04-02T04:02:03.788Z,998.44
2023-04-02T04:03:03.763Z,998.48
2023-04-02T04:04:03.741Z,998.47
2023-04-02T04:05:03.702Z,998.45
2023-04-02T04:06:03.695Z,998.48
2023-04-02T04:07:03.681Z,998.50
2023-04-02T04:08:03.675Z,998.50
2023-04-02T04:09:03.662Z,998.53
2023-04-02T04:10:03.655Z,998.57
2023-04-02T04:11:03.678Z,998.58
2023-04-02T04:12:03.639Z,998.59
2023-04-02T04:13:03.621Z,998.60
2023-04-02T04:14:03.617Z,998.64
2023-04-02T04:15:03.598Z,998.62
2023-04-02T04:16:03.590Z,998.68
2023-04-02T04:17:03.582Z,998.64
2023-04-02T04:18:03.624Z,998.62
2023-04-02T04:19:03.591Z,998.69
2023-04-02T04:20:03.550Z,998.67
2023-04-02T04:21:03.539Z,998.68
2023-04-02T04:22:03.537Z,998.70
2023-04-02T04:23:03.557Z,998.72
2023-04-02T04:24:03.520Z,998.69
2023-04-02T04:25:03.505Z,998.72
2023-04-02T04:26:03.493Z,998.75
2023-04-02T04:27:03.481Z,998.74
2023-04-02T04:28:03.470Z,998.76
2023-04-02T04:29:03.463Z,998.75
2023-04-02T04:30:03.465Z,998.78
2023-04-02T04:31:03.440Z,998.79
2023-04-02T04:32:03.461Z,998.79
2023-04-02T04:33:03.446Z,998.80
2023-04-02T04:34:03.408Z,998.80
2023-04-02T04:35:03.407Z,998.83
2023-04-02T04:36:03.721Z,998.83
2023-04-02T04:37:03.381Z,998.87
2023-04-02T04:38:03.933Z,998.91
2023-04-02T04:39:03.368Z,998.89
2023-04-02T04:40:03.351Z,998.89
2023-04-02T04:41:03.338Z,998.92
2023-04-02T04:42:03.335Z,998.94
2023-04-02T04:43:03.912Z,998.98
2023-04-02T04:44:03.313Z,999.00
2023-04-02T04:45:03.298Z,999.00
2023-04-02T04:46:03.323Z,999.04
2023-04-02T04:47:03.283Z,999.04
2023-04-02T04:48:03.938Z,999.05
2023-04-02T04:49:03.264Z,999.09
2023-04-02T04:50:03.256Z,999.10
2023-04-02T04:51:03.305Z,999.12
2023-04-02T04:52:03.250Z,999.12
2023-04-02T04:53:03.221Z,999.10
2023-04-02T04:54:03.217Z,999.12
2023-04-02T04:55:03.201Z,999.15
2023-04-02T04:56:18.172Z,999.15
2023-04-02T04:57:03.214Z,999.18
2023-04-02T04:58:03.175Z,999.14
2023-04-02T04:59:03.174Z,999.20
2023-04-02T05:00:03.157Z,999.21
2023-04-02T05:01:03.158Z,999.23
2023-04-02T05:02:03.128Z,999.20
2023-04-02T05:03:03.187Z,999.21
2023-04-02T05:04:03.113Z,999.28
2023-04-02T05:05:03.144Z,999.25
2023-04-02T05:06:03.095Z,999.26
2023-04-02T05:07:03.086Z,999.27
2023-04-02T05:08:03.917Z,999.27
2023-04-02T05:09:03.054Z,999.33
2023-04-02T05:10:03.044Z,999.28
2023-04-02T05:11:03.035Z,999.27
2023-04-02T05:12:03.035Z,999.33
2023-04-02T05:13:03.921Z,999.38
2023-04-02T05:14:03.007Z,999.32
2023-04-02T05:15:03.004Z,999.33
2023-04-02T05:16:03.003Z,999.41
2023-04-02T05:17:02.977Z,999.42
2023-04-02T05:18:03.957Z,999.43
2023-04-02T05:19:02.961Z,999.43
2023-04-02T05:20:02.959Z,999.44
2023-04-02T05:21:02.930Z,999.46
2023-04-02T05:22:02.928Z,999.53
2023-04-02T05:23:02.922Z,999.52
2023-04-02T05:24:02.911Z,999.56
2023-04-02T05:25:02.905Z,999.59
2023-04-02T05:26:02.889Z,999.59
2023-04-02T05:27:02.875Z,999.59
2023-04-02T05:28:02.866Z,999.61
2023-04-02T05:29:02.859Z,999.62
2023-04-02T05:30:02.854Z,999.61
2023-04-02T05:31:02.872Z,999.69
2023-04-02T05:32:02.836Z,999.68
2023-04-02T05:33:02.833Z,999.68
2023-04-02T05:34:02.808Z,999.69
2023-04-02T05:35:02.791Z,999.66
2023-04-02T05:36:02.807Z,999.73
2023-04-02T05:37:04.054Z,999.70
2023-04-02T05:38:02.789Z,999.73
2023-04-02T05:39:02.759Z,999.73
2023-04-02T05:40:02.746Z,999.75
2023-04-02T05:41:02.738Z,999.77
2023-04-02T05:42:02.730Z,999.82
2023-04-02T05:43:02.713Z,999.80
2023-04-02T05:44:02.705Z,999.81
2023-04-02T05:45:02.695Z,999.85
2023-04-02T05:46:02.691Z,999.83
2023-04-02T05:47:02.690Z,999.83
2023-04-02T05:48:02.725Z,999.89
2023-04-02T05:49:02.657Z,999.86
2023-04-02T05:50:02.651Z,999.89
2023-04-02T05:51:02.632Z,999.94
2023-04-02T05:52:02.634Z,999.95
2023-04-02T05:53:02.615Z,999.97
2023-04-02T05:54:02.607Z,999.99
2023-04-02T05:55:02.596Z,1000.02
2023-04-02T05:56:02.585Z,1000.00
2023-04-02T05:57:02.633Z,1000.03
2023-04-02T05:58:25.447Z,1000.06
2023-04-02T05:59:02.556Z,1000.07
2023-04-02T06:00:02.542Z,1000.08
2023-04-02T06:01:02.534Z,1000.06
2023-04-02T06:02:02.537Z,1000.10
2023-04-02T06:03:02.608Z,1000.13
2023-04-02T06:04:02.578Z,1000.11
2023-04-02T06:05:02.495Z,1000.11
2023-04-02T06:06:02.494Z,1000.17
2023-04-02T06:07:02.481Z,1000.20
2023-04-02T06:08:02.497Z,1000.22
2023-04-02T06:09:02.452Z,1000.24
2023-04-02T06:10:02.456Z,1000.24
2023-04-02T06:11:02.449Z,1000.25
2023-04-02T06:12:02.438Z,1000.26
2023-04-02T06:13:02.415Z,1000.28
2023-04-02T06:14:02.407Z,1000.29
2023-04-02T06:15:02.394Z,1000.30
2023-04-02T06:16:02.386Z,1000.35
2023-04-02T06:17:02.406Z,1000.35
2023-04-02T06:18:02.386Z,1000.44
2023-04-02T06:19:02.355Z,1000.42
2023-04-02T06:20:02.346Z,1000.43
2023-04-02T06:21:02.336Z,1000.43
2023-04-02T06:22:02.328Z,1000.49
2023-04-02T06:23:02.319Z,1000.48
2023-04-02T06:24:02.314Z,1000.48
2023-04-02T06:25:02.293Z,1000.51
2023-04-02T06:26:02.284Z,1000.53
2023-04-02T06:27:02.277Z,1000.54
2023-04-02T06:28:02.273Z,1000.60
2023-04-02T06:29:02.265Z,1000.63
2023-04-02T06:30:02.264Z,1000.60
2023-04-02T06:31:02.251Z,1000.61
2023-04-02T06:32:02.229Z,1000.67
2023-04-02T06:33:02.244Z,1000.66
2023-04-02T06:34:02.212Z,1000.72
2023-04-02T06:35:02.204Z,1000.72
2023-04-02T06:36:02.212Z,1000.72
2023-04-02T06:37:02.182Z,1000.76
2023-04-02T06:38:02.176Z,1000.76
2023-04-02T06:39:02.164Z,1000.77
2023-04-02T06:40:02.186Z,1000.79
2023-04-02T06:41:02.146Z,1000.81
2023-04-02T06:42:02.138Z,1000.85
2023-04-02T06:43:02.133Z,1000.85
2023-04-02T06:44:02.118Z,1000.91
2023-04-02T06:45:02.148Z,1000.89
2023-04-02T06:46:02.115Z,1000.94
2023-04-02T06:47:02.087Z,1001.00
2023-04-02T06:48:02.112Z,1000.99
2023-04-02T06:49:02.075Z,1000.99
2023-04-02T06:50:02.083Z,1001.01
2023-04-02T06:51:02.065Z,1001.07
2023-04-02T06:52:02.040Z,1001.09
2023-04-02T06:53:02.029Z,1001.11
2023-04-02T06:54:02.020Z,1001.12
2023-04-02T06:55:02.052Z,1001.17
2023-04-02T06:56:02.005Z,1001.20
2023-04-02T06:57:02.030Z,1001.20
2023-04-02T06:58:01.994Z,1001.20
2023-04-02T06:59:01.973Z,1001.25
2023-04-02T07:00:01.959Z,1001.25
2023-04-02T07:01:01.951Z,1001.28
2023-04-02T07:02:01.945Z,1001.30
2023-04-02T07:03:01.957Z,1001.29
2023-04-02T07:04:01.931Z,1001.36
2023-04-02T07:05:01.968Z,1001.36
2023-04-02T07:06:01.897Z,1001.39
2023-04-02T07:07:01.898Z,1001.44
2023-04-02T07:08:01.918Z,1001.43
2023-04-02T07:09:01.877Z,1001.47
2023-04-02T07:10:01.862Z,1001.54
2023-04-02T07:11:01.854Z,1001.52
2023-04-02T07:12:01.845Z,1001.54
2023-04-02T07:13:01.854Z,1001.59
2023-04-02T07:14:01.829Z,1001.61
2023-04-02T07:15:01.816Z,1001.58
2023-04-02T07:16:01.846Z,1001.64
2023-04-02T07:17:01.796Z,1001.63
2023-04-02T07:18:01.840Z,1001.67
2023-04-02T07:19:01.780Z,1001.66
2023-04-02T07:20:01.768Z,1001.68
2023-04-02T07:21:01.753Z,1001.70
2023-04-02T07:22:01.746Z,1001.75
2023-04-02T07:23:01.738Z,1001.80
2023-04-02T07:24:01.727Z,1001.80
2023-04-02T07:25:01.721Z,1001.84
2023-04-02T07:26:01.709Z,1001.88
2023-04-02T07:27:01.714Z,1001.93
2023-04-02T07:28:01.693Z,1002.04
2023-04-02T07:29:01.694Z,1002.05
2023-04-02T07:30:01.673Z,1002.08
2023-04-02T07:31:01.699Z,1002.13
2023-04-02T07:32:01.657Z,1002.17
2023-04-02T07:33:01.654Z,1002.17
2023-04-02T07:34:01.632Z,1002.25
2023-04-02T07:35:01.626Z,1002.22
2023-04-02T07:36:01.657Z,1002.22
2023-04-02T07:37:01.605Z,1002.28
2023-04-02T07:38:01.596Z,1002.28
2023-04-02T07:39:01.647Z,1002.33
2023-04-02T07:40:01.606Z,1002.33
2023-04-02T07:41:01.572Z,1002.31
2023-04-02T07:42:01.554Z,1002.33
2023-04-02T07:43:01.548Z,1002.33
2023-04-02T07:44:01.544Z,1002.38
2023-04-02T07:45:02.821Z,1002.36
2023-04-02T07:46:01.520Z,1002.37
2023-04-02T07:47:01.752Z,1002.37
2023-04-02T07:48:01.576Z,1002.40
2023-04-02T07:49:01.487Z,1002.45
2023-04-02T07:50:01.494Z,1002.42
2023-04-02T07:51:01.473Z,1002.46
2023-04-02T07:52:01.466Z,1002.47
2023-04-02T07:53:01.473Z,1002.52
2023-04-02T07:54:01.437Z,1002.51
2023-04-02T07:55:01.428Z,1002.53
2023-04-02T07:56:01.445Z,1002.54
2023-04-02T07:57:01.439Z,1002.57
2023-04-02T07:58:01.396Z,1002.55
2023-04-02T07:59:01.399Z,1002.63
2023-04-02T08:00:01.382Z,1002.63
2023-04-02T08:01:01.398Z,1002.63
2023-04-02T08:02:01.378Z,1002.66
2023-04-02T08:03:01.442Z,1002.65
2023-04-02T08:04:01.411Z,1002.65
2023-04-02T08:05:01.340Z,1002.73
2023-04-02T08:06:01.325Z,1002.73
2023-04-02T08:07:01.312Z,1002.79
2023-04-02T08:08:01.292Z,1002.80
2023-04-02T08:09:01.298Z,1002.79
2023-04-02T08:10:01.418Z,1002.78
2023-04-02T08:11:01.277Z,1002.77
2023-04-02T08:12:01.270Z,1002.81
2023-04-02T08:13:01.247Z,1002.85
2023-04-02T08:14:01.238Z,1002.85
2023-04-02T08:15:01.275Z,1002.93
2023-04-02T08:16:01.221Z,1002.93
2023-04-02T08:17:01.235Z,1002.92
2023-04-02T08:18:01.227Z,1002.95
2023-04-02T08:19:01.183Z,1002.98
2023-04-02T08:20:01.192Z,1003.02
2023-04-02T08:21:01.159Z,1003.06
2023-04-02T08:22:01.150Z,1003.02
2023-04-02T08:23:01.983Z,1003.06
2023-04-02T08:24:01.130Z,1003.11
2023-04-02T08:25:01.123Z,1003.09
2023-04-02T08:26:01.114Z,1003.10
2023-04-02T08:27:01.098Z,1003.12
2023-04-02T08:28:01.087Z,1003.18
2023-04-02T08:29:01.087Z,1003.21
2023-04-02T08:30:01.070Z,1003.21
2023-04-02T08:31:01.106Z,1003.20
2023-04-02T08:32:01.048Z,1003.29
2023-04-02T08:33:01.093Z,1003.27
2023-04-02T08:34:01.028Z,1003.31
2023-04-02T08:35:01.014Z,1003.29
2023-04-02T08:36:01.025Z,1003.34
2023-04-02T08:37:01.002Z,1003.29
2023-04-02T08:38:01.061Z,1003.36
2023-04-02T08:39:00.984Z,1003.40
2023-04-02T08:40:00.959Z,1003.35
2023-04-02T08:41:00.958Z,1003.46
2023-04-02T08:42:00.940Z,1003.47
2023-04-02T08:43:00.927Z,1003.50
2023-04-02T08:44:00.924Z,1003.53
2023-04-02T08:45:05.799Z,1003.60
2023-04-02T08:46:00.900Z,1003.58
2023-04-02T08:47:00.887Z,1003.60
2023-04-02T08:48:00.943Z,1003.64
2023-04-02T08:49:00.865Z,1003.65
2023-04-02T08:50:00.866Z,1003.68
2023-04-02T08:51:00.863Z,1003.70
2023-04-02T08:52:00.852Z,1003.74
2023-04-02T08:53:00.818Z,1003.80
2023-04-02T08:54:00.808Z,1003.82
2023-04-02T08:55:00.809Z,1003.81
2023-04-02T08:56:00.791Z,1003.87
2023-04-02T08:57:00.778Z,1003.85
2023-04-02T08:58:00.763Z,1003.89
2023-04-02T08:59:00.766Z,1003.93
2023-04-02T09:00:00.749Z,1003.96
2023-04-02T09:01:00.741Z,1004.00
2023-04-02T09:02:00.755Z,1003.97
2023-04-02T09:03:00.747Z,1003.95
2023-04-02T09:04:00.709Z,1004.06
2023-04-02T09:05:00.734Z,1004.06
2023-04-02T09:06:00.691Z,1004.10
2023-04-02T09:07:00.676Z,1004.11
2023-04-02T09:08:00.667Z,1004.14
2023-04-02T09:09:00.661Z,1004.18
2023-04-02T09:10:00.647Z,1004.14
2023-04-02T09:11:00.637Z,1004.20
2023-04-02T09:12:00.655Z,1004.25
2023-04-02T09:13:00.607Z,1004.28
2023-04-02T09:14:00.605Z,1004.26
2023-04-02T09:15:00.601Z,1004.28
2023-04-02T09:16:00.623Z,1004.33
2023-04-02T09:17:00.572Z,1004.33
2023-04-02T09:18:00.644Z,1004.33
2023-04-02T09:19:00.544Z,1004.38
2023-04-02T09:20:00.531Z,1004.42
2023-04-02T09:21:00.523Z,1004.36
2023-04-02T09:22:00.525Z,1004.45
2023-04-02T09:23:00.502Z,1004.46
2023-04-02T09:24:00.491Z,1004.50
2023-04-02T09:25:00.496Z,1004.51
2023-04-02T09:26:04.550Z,1004.48
2023-04-02T09:27:00.491Z,1004.55
2023-04-02T09:28:00.452Z,1004.50
2023-04-02T09:29:00.456Z,1004.53
2023-04-02T09:30:00.426Z,1004.58
2023-04-02T09:31:00.427Z,1004.60
2023-04-02T09:32:00.467Z,1004.64
2023-04-02T09:33:00.432Z,1004.68
2023-04-02T09:34:00.399Z,1004.67
2023-04-02T09:35:00.379Z,1004.70
2023-04-02T09:36:00.407Z,1004.69
2023-04-02T09:37:00.366Z,1004.74
2023-04-02T09:38:00.349Z,1004.72
2023-04-02T09:39:00.362Z,1004.78
2023-04-02T09:40:00.330Z,1004.75
2023-04-02T09:41:00.320Z,1004.75
2023-04-02T09:42:05.449Z,1004.80
2023-04-02T09:43:01.016Z,1004.78
2023-04-02T09:44:00.287Z,1004.84
2023-04-02T09:45:00.274Z,1004.92
2023-04-02T09:46:00.266Z,1004.89
2023-04-02T09:47:00.408Z,1004.86
2023-04-02T09:48:00.269Z,1004.86
2023-04-02T09:49:00.234Z,1004.97
2023-04-02T09:50:00.219Z,1004.83
2023-04-02T09:51:00.216Z,1004.88
2023-04-02T09:52:00.204Z,1004.91
2023-04-02T09:53:00.197Z,1004.93
2023-04-02T09:54:00.185Z,1004.95
2023-04-02T09:55:00.180Z,1004.94
2023-04-02T09:56:00.156Z,1004.94
2023-04-02T09:57:00.228Z,1004.97
2023-04-02T09:58:01.927Z,1005.02
2023-04-02T09:59:00.126Z,1005.00
2023-04-02T10:00:00.146Z,1005.09
2023-04-02T10:01:00.147Z,1005.07
2023-04-02T10:02:00.128Z,1005.13
2023-04-02T10:03:00.167Z,1005.15
2023-04-02T10:04:00.205Z,1005.16
2023-04-02T10:05:00.060Z,1005.23
2023-04-02T10:06:00.049Z,1005.26
2023-04-02T10:07:00.047Z,1005.30
2023-04-02T10:08:00.033Z,1005.31
2023-04-02T10:09:00.025Z,1005.36
2023-04-02T10:10:00.005Z,1005.45
2023-04-02T10:10:59.999Z,1005.36
2023-04-02T10:12:00.010Z,1005.41
2023-04-02T10:12:59.979Z,1005.39
2023-04-02T10:13:59.977Z,1005.42
2023-04-02T10:14:59.969Z,1005.44
2023-04-02T10:15:59.969Z,1005.46
2023-04-02T10:16:59.994Z,1005.50
2023-04-02T10:17:59.936Z,1005.53
2023-04-02T10:18:59.916Z,1005.51
2023-04-02T10:19:59.898Z,1005.55
2023-04-02T10:20:59.887Z,1005.57
2023-04-02T10:21:59.886Z,1005.63
2023-04-02T10:22:59.873Z,1005.57
2023-04-02T10:23:59.860Z,1005.54
2023-04-02T10:24:59.846Z,1005.58
2023-04-02T10:25:59.834Z,1005.62
2023-04-02T10:26:59.831Z,1005.64
2023-04-02T10:27:59.820Z,1005.69
2023-04-02T10:28:59.811Z,1005.74
2023-04-02T10:29:59.815Z,1005.67
2023-04-02T10:30:59.834Z,1005.77
2023-04-02T10:31:59.793Z,1005.77
2023-04-02T10:32:59.815Z,1005.82
2023-04-02T10:33:59.760Z,1005.78
2023-04-02T10:34:59.743Z,1005.81
2023-04-02T10:35:59.852Z,1005.87
2023-04-02T10:36:59.737Z,1005.87
2023-04-02T10:37:59.718Z,1005.94
2023-04-02T10:38:59.723Z,1005.95
2023-04-02T10:39:59.695Z,1005.98
2023-04-02T10:40:59.699Z,1005.95
2023-04-02T10:41:59.680Z,1006.00
2023-04-02T10:42:59.667Z,1006.06
2023-04-02T10:44:09.172Z,1006.03
2023-04-02T10:44:59.644Z,1006.02
2023-04-02T10:45:59.679Z,1006.02
2023-04-02T10:46:59.629Z,1006.03
2023-04-02T10:47:59.644Z,1006.07
2023-04-02T10:48:59.612Z,1006.08
2023-04-02T10:49:59.596Z,1006.13
2023-04-02T10:50:59.582Z,1006.20
2023-04-02T10:51:59.592Z,1006.19
2023-04-02T10:52:59.560Z,1006.21
2023-04-02T10:53:59.555Z,1006.20
2023-04-02T10:54:59.544Z,1006.24
2023-04-02T10:55:59.528Z,1006.29
2023-04-02T10:56:59.588Z,1006.27
2023-04-02T10:57:59.511Z,1006.33
2023-04-02T10:58:59.501Z,1006.30
2023-04-02T10:59:59.521Z,1006.35
2023-04-02T11:00:59.480Z,1006.32
2023-04-02T11:01:59.480Z,1006.39
2023-04-02T11:02:59.560Z,1006.44
2023-04-02T11:03:59.473Z,1006.41
2023-04-02T11:05:01.168Z,1006.46
2023-04-02T11:05:59.426Z,1006.44
2023-04-02T11:07:11.236Z,1006.46
2023-04-02T11:07:59.411Z,1006.49
2023-04-02T11:08:59.411Z,1006.51
2023-04-02T11:09:59.382Z,1006.63
2023-04-02T11:10:59.380Z,1006.58
2023-04-02T11:11:59.366Z,1006.57
2023-04-02T11:12:59.378Z,1006.58
2023-04-02T11:13:59.357Z,1006.64
2023-04-02T11:14:59.332Z,1006.64
2023-04-02T11:15:59.381Z,1006.63
2023-04-02T11:16:59.312Z,1006.65
2023-04-02T11:17:59.369Z,1006.67
2023-04-02T11:18:59.300Z,1006.64
2023-04-02T11:19:59.287Z,1006.69
2023-04-02T11:20:59.270Z,1006.71
2023-04-02T11:22:00.773Z,1006.67
2023-04-02T11:22:59.252Z,1006.73
2023-04-02T11:23:59.250Z,1006.72
2023-04-02T11:24:59.238Z,1006.80
2023-04-02T11:25:59.224Z,1006.78
2023-04-02T11:26:59.210Z,1006.81
2023-04-02T11:27:59.200Z,1006.82
2023-04-02T11:29:59.263Z,1006.84
2023-04-02T11:30:59.277Z,1006.89
2023-04-02T11:31:59.248Z,1006.92
2023-04-02T11:32:59.283Z,1007.00
2023-04-02T11:33:59.211Z,1006.95
2023-04-02T11:35:06.407Z,1006.94
2023-04-02T11:36:20.231Z,1007.01
2023-04-02T11:36:59.178Z,1007.04
2023-04-02T11:37:59.176Z,1007.03
2023-04-02T11:39:07.374Z,1007.06
2023-04-02T11:39:59.164Z,1007.10
2023-04-02T11:40:59.135Z,1007.13
2023-04-02T11:42:20.131Z,1007.12
2023-04-02T11:42:59.110Z,1007.14
2023-04-02T11:43:59.128Z,1007.16
2023-04-02T11:44:59.091Z,1007.13
2023-04-02T11:45:59.220Z,1007.20
2023-04-02T11:46:59.109Z,1007.18
2023-04-02T11:48:20.089Z,1007.19
2023-04-02T11:48:59.059Z,1007.22
2023-04-02T11:49:59.071Z,1007.28
2023-04-02T11:50:59.038Z,1007.19
2023-04-02T11:52:09.341Z,1007.35
2023-04-02T11:52:59.019Z,1007.31
2023-04-02T11:54:20.038Z,1007.29
2023-04-02T11:54:58.984Z,1007.30
2023-04-02T11:55:58.995Z,1007.37
2023-04-02T11:56:59.015Z,1007.37
2023-04-02T11:57:58.968Z,1007.37
2023-04-02T11:58:58.954Z,1007.35
2023-04-02T12:00:19.963Z,1007.37
2023-04-02T12:00:58.957Z,1007.35
2023-04-02T12:01:58.967Z,1007.35
2023-04-02T12:02:58.960Z,1007.41
2023-04-02T12:03:58.915Z,1007.40
2023-04-02T12:04:58.918Z,1007.40
2023-04-02T12:06:19.905Z,1007.47
2023-04-02T12:06:58.881Z,1007.43
2023-04-02T12:07:58.875Z,1007.50
2023-04-02T12:08:58.861Z,1007.50
2023-04-02T12:09:58.854Z,1007.49
2023-04-02T12:10:58.829Z,1007.56
2023-04-02T12:12:19.840Z,1007.58
2023-04-02T12:12:58.823Z,1007.57
2023-04-02T12:13:58.814Z,1007.58
2023-04-02T12:14:58.850Z,1007.62
2023-04-02T12:15:58.790Z,1007.61
2023-04-02T12:16:58.834Z,1007.68